createdAt,value
2023-05-20T00:04:52.251Z,60.00
2023-05-20T00:09:55.086Z,69.27
2023-05-20T00:14:57.925Z,59.37
2023-05-20T00:20:00.797Z,54.15
2023-05-20T00:25:03.724Z,57.04
2023-05-20T00:30:07.598Z,58.39
2023-05-20T00:35:11.672Z,61.10
2023-05-20T00:40:15.971Z,68.50
2023-05-20T00:45:18.781Z,58.39
2023-05-20T00:50:21.764Z,53.74
2023-05-20T00:55:25.788Z,56.54
2023-05-20T01:00:28.531Z,59.34
2023-05-20T01:05:31.319Z,68.13
2023-05-20T01:10:39.555Z,60.29
2023-05-20T01:15:46.488Z,52.71
2023-05-20T01:20:54.786Z,55.31
2023-05-20T01:25:57.523Z,59.61
2023-05-20T01:31:04.167Z,67.39
2023-05-20T01:36:08.896Z,60.50
2023-05-20T01:41:12.788Z,52.56
2023-05-20T01:46:15.744Z,53.53
2023-05-20T01:51:18.482Z,56.71
2023-05-20T01:56:22.289Z,55.90
2023-05-20T02:01:25.109Z,59.02
2023-05-20T02:06:27.971Z,67.85
2023-05-20T02:11:30.805Z,59.70
2023-05-20T02:16:33.765Z,53.93
2023-05-20T02:21:36.621Z,56.62
2023-05-20T02:26:39.365Z,58.75
2023-05-20T02:31:42.157Z,59.90
2023-05-20T02:36:44.871Z,68.96
2023-05-20T02:41:47.740Z,59.79
2023-05-20T02:46:50.629Z,53.22
2023-05-20T02:51:53.357Z,57.15
2023-05-20T02:56:56.154Z,60.39
2023-05-20T03:01:58.980Z,68.08
2023-05-20T03:07:01.743Z,58.40
2023-05-20T03:12:04.837Z,53.18
2023-05-20T03:17:09.530Z,55.47
2023-05-20T03:22:12.347Z,57.09
2023-05-20T03:27:15.088Z,58.91
2023-05-20T03:32:18.018Z,60.52
2023-05-20T03:37:20.724Z,69.51
2023-05-20T03:42:23.501Z,58.26
2023-05-20T03:47:27.302Z,53.75
2023-05-20T03:52:30.100Z,56.32
2023-05-20T03:57:32.907Z,57.10
2023-05-20T04:02:35.771Z,58.86
2023-05-20T04:07:38.606Z,67.41
2023-05-20T04:12:41.536Z,57.01
2023-05-20T04:17:48.627Z,53.80
2023-05-20T04:22:52.437Z,55.95
2023-05-20T04:27:55.272Z,61.94
2023-05-20T04:32:58.086Z,63.27
2023-05-20T04:38:02.117Z,53.29
2023-05-20T04:43:04.982Z,55.95
2023-05-20T04:48:07.765Z,60.26
2023-05-20T04:53:10.535Z,63.18
2023-05-20T04:58:17.615Z,60.74
2023-05-20T05:03:20.416Z,52.58
2023-05-20T05:08:23.186Z,55.04
2023-05-20T05:13:26.766Z,59.36
2023-05-20T05:18:29.635Z,61.30
2023-05-20T05:23:33.384Z,64.87
2023-05-20T05:28:36.091Z,55.26
2023-05-20T05:33:38.886Z,55.05
2023-05-20T05:38:41.512Z,57.55
2023-05-20T05:43:44.271Z,60.90
2023-05-20T05:48:49.293Z,61.61
2023-05-20T05:53:52.016Z,64.41
2023-05-20T05:58:54.823Z,51.66
2023-05-20T06:03:57.552Z,52.06
2023-05-20T06:09:00.463Z,56.33
2023-05-20T06:14:03.210Z,58.94
2023-05-20T06:19:06.114Z,59.67
2023-05-20T06:24:08.980Z,60.82
2023-05-20T06:29:12.039Z,60.42
2023-05-20T06:34:14.722Z,61.70
2023-05-20T06:39:17.437Z,60.89
2023-05-20T06:44:20.126Z,60.13
2023-05-20T06:49:24.158Z,59.95
2023-05-20T06:54:26.959Z,59.20
2023-05-20T06:59:29.927Z,56.54
2023-05-20T07:04:32.694Z,57.99
2023-05-20T07:09:35.863Z,57.19
2023-05-20T07:14:38.627Z,57.00
2023-05-20T07:19:41.502Z,55.96
2023-05-20T07:24:59.855Z,55.13
2023-05-20T07:30:02.738Z,55.07
2023-05-20T07:35:06.006Z,54.08
2023-05-20T07:40:09.876Z,53.78
2023-05-20T07:45:12.592Z,52.94
2023-05-20T07:50:15.510Z,52.72
2023-05-20T07:55:18.665Z,51.77
2023-05-20T08:00:21.526Z,50.46
2023-05-20T08:05:24.308Z,49.87
2023-05-20T08:10:27.027Z,49.21
2023-05-20T08:15:29.834Z,50.33
2023-05-20T08:20:32.570Z,49.73
2023-05-20T08:25:35.474Z,49.16
2023-05-20T08:30:38.408Z,49.79
2023-05-20T08:35:41.288Z,48.95
2023-05-20T08:40:44.258Z,48.39
2023-05-20T08:45:47.152Z,47.81
2023-05-20T08:50:54.398Z,47.33
2023-05-20T08:56:02.887Z,48.34
2023-05-20T09:01:07.978Z,48.89
2023-05-20T09:06:11.205Z,48.78
2023-05-20T09:11:13.925Z,49.25
2023-05-20T09:16:17.124Z,48.64
2023-05-20T09:21:26.778Z,49.12
2023-05-20T09:26:30.235Z,50.07
2023-05-20T09:31:34.127Z,48.73
2023-05-20T09:36:40.354Z,49.63
2023-05-20T09:41:55.046Z,50.38
2023-05-20T09:46:59.276Z,49.52
2023-05-20T09:52:03.628Z,49.18
2023-05-20T09:57:08.052Z,49.15
2023-05-20T10:02:11.235Z,47.29
2023-05-20T10:07:42.416Z,46.52
2023-05-20T10:12:58.825Z,46.89
2023-05-20T10:18:25.637Z,46.48
2023-05-20T10:23:29.951Z,45.82
2023-05-20T10:28:36.441Z,45.29
2023-05-20T10:33:43.774Z,44.36
2023-05-20T10:38:57.303Z,44.66
2023-05-20T10:44:01.678Z,43.30
2023-05-20T10:49:05.576Z,42.52
2023-05-20T10:54:10.769Z,42.11
2023-05-20T10:59:14.309Z,43.40
2023-05-20T11:04:18.004Z,42.41
2023-05-20T11:09:21.006Z,41.91
2023-05-20T11:14:24.012Z,43.10
2023-05-20T11:19:27.356Z,42.78
2023-05-20T11:24:30.780Z,43.41
2023-05-20T11:29:33.956Z,42.73
2023-05-20T11:34:38.647Z,42.14
2023-05-20T11:39:41.398Z,41.96
2023-05-20T11:44:45.359Z,42.50
2023-05-20T11:49:49.341Z,42.17
2023-05-20T11:54:53.558Z,42.33
2023-05-20T11:59:56.387Z,42.63
2023-05-20T12:04:59.335Z,42.59
2023-05-20T12:10:03.991Z,42.87
2023-05-20T12:15:07.226Z,42.91
2023-05-20T12:20:10.353Z,43.23
2023-05-20T12:25:17.730Z,42.12
2023-05-20T12:30:22.091Z,43.00
2023-05-20T12:35:36.218Z,42.22
2023-05-20T12:40:39.740Z,41.45
2023-05-20T12:45:43.068Z,40.92
2023-05-20T12:50:45.910Z,40.75
2023-05-20T12:55:48.678Z,41.07
2023-05-20T13:00:51.445Z,40.92
2023-05-20T13:05:54.232Z,40.97
2023-05-20T13:10:56.983Z,40.90
2023-05-20T13:15:59.730Z,39.89
2023-05-20T13:21:02.507Z,39.49
2023-05-20T13:26:05.343Z,39.88
2023-05-20T13:31:08.072Z,39.54
2023-05-20T13:36:10.938Z,39.79
2023-05-20T13:41:13.699Z,39.71
2023-05-20T13:46:17.295Z,39.37
2023-05-20T13:51:20.204Z,39.81
2023-05-20T13:56:23.326Z,39.83
2023-05-20T14:01:26.102Z,40.35
2023-05-20T14:06:29.542Z,40.79
2023-05-20T14:11:32.316Z,38.59
2023-05-20T14:16:35.430Z,37.98
2023-05-20T14:21:38.382Z,36.74
2023-05-20T14:26:41.161Z,37.67
2023-05-20T14:31:43.994Z,37.41
2023-05-20T14:36:46.836Z,36.75
2023-05-20T14:41:49.605Z,36.51
2023-05-20T14:46:52.404Z,35.79
2023-05-20T14:51:55.397Z,35.09
2023-05-20T14:56:58.250Z,35.75
2023-05-20T15:02:04.443Z,34.56
2023-05-20T15:07:07.173Z,33.98
2023-05-20T15:12:11.391Z,33.23
2023-05-20T15:17:14.335Z,32.93
2023-05-20T15:22:17.084Z,33.45
2023-05-20T15:27:19.889Z,33.84
2023-05-20T15:32:22.793Z,33.58
2023-05-20T15:37:25.637Z,34.46
2023-05-20T15:42:28.439Z,34.80
2023-05-20T15:47:31.216Z,34.77
2023-05-20T15:52:34.186Z,35.26
2023-05-20T15:57:37.007Z,36.02
2023-05-20T16:02:40.371Z,36.62
2023-05-20T16:07:43.822Z,37.28
2023-05-20T16:12:46.999Z,37.60
2023-05-20T16:17:49.838Z,38.00
2023-05-20T16:22:52.585Z,38.25
2023-05-20T16:27:55.706Z,38.94
2023-05-20T16:32:58.541Z,39.22
2023-05-20T16:38:01.934Z,39.86
2023-05-20T16:43:04.714Z,40.10
2023-05-20T16:48:07.488Z,40.22
2023-05-20T16:53:10.281Z,40.58
2023-05-20T16:58:13.336Z,40.49
2023-05-20T17:03:18.110Z,40.65
2023-05-20T17:08:21.033Z,40.86
2023-05-20T17:13:23.783Z,41.02
2023-05-20T17:18:26.578Z,41.26
2023-05-20T17:23:29.358Z,41.56
2023-05-20T17:28:32.114Z,41.91
2023-05-20T17:33:35.589Z,42.13
2023-05-20T17:38:38.481Z,42.25
2023-05-20T17:43:41.292Z,42.77
2023-05-20T17:48:44.991Z,42.92
2023-05-20T17:53:48.090Z,43.61
2023-05-20T17:58:50.834Z,43.56
2023-05-20T18:03:54.232Z,44.02
2023-05-20T18:08:57.308Z,44.40
2023-05-20T18:14:01.912Z,44.73
2023-05-20T18:19:04.810Z,45.02
2023-05-20T18:24:07.529Z,45.64
2023-05-20T18:29:12.388Z,46.28
2023-05-20T18:34:16.356Z,46.86
2023-05-20T18:39:21.096Z,47.26
2023-05-20T18:44:23.994Z,47.98
2023-05-20T18:49:27.101Z,48.69
2023-05-20T18:54:29.845Z,49.56
2023-05-20T18:59:33.611Z,49.83
2023-05-20T19:04:36.363Z,51.06
2023-05-20T19:09:39.095Z,51.62
2023-05-20T19:14:41.878Z,52.28
2023-05-20T19:19:44.604Z,53.21
2023-05-20T19:24:47.350Z,54.10
2023-05-20T19:29:49.975Z,54.62
2023-05-20T19:34:52.704Z,54.58
2023-05-20T19:39:55.523Z,55.10
2023-05-20T19:44:58.329Z,53.96
2023-05-20T19:50:01.529Z,55.10
2023-05-20T19:55:04.648Z,55.38
2023-05-20T20:00:08.321Z,55.93
2023-05-20T20:05:11.085Z,56.72
2023-05-20T20:10:13.738Z,58.02
2023-05-20T20:15:17.019Z,57.61
2023-05-20T20:20:20.166Z,59.65
2023-05-20T20:25:23.487Z,60.38
2023-05-20T20:30:26.863Z,60.73
2023-05-20T20:35:29.619Z,61.26
2023-05-20T20:40:33.535Z,60.73
2023-05-20T20:45:39.381Z,70.95
2023-05-20T20:50:42.481Z,62.09
2023-05-20T20:55:48.551Z,53.78
2023-05-20T21:00:53.214Z,56.16
2023-05-20T21:05:56.122Z,58.65
2023-05-20T21:10:59.539Z,60.13
2023-05-20T21:16:02.477Z,61.18
2023-05-20T21:21:10.075Z,68.37
2023-05-20T21:26:12.788Z,59.06
2023-05-20T21:31:16.231Z,55.45
2023-05-20T21:36:19.002Z,58.52
2023-05-20T21:41:21.767Z,60.67
2023-05-20T21:46:24.840Z,67.17
2023-05-20T21:51:27.692Z,60.52
2023-05-20T21:56:30.429Z,54.66
2023-05-20T22:01:33.294Z,57.90
2023-05-20T22:06:36.277Z,60.55
2023-05-20T22:11:38.931Z,67.02
2023-05-20T22:16:48.917Z,58.23
2023-05-20T22:21:51.768Z,56.15
2023-05-20T22:26:54.504Z,59.38
2023-05-20T22:31:57.242Z,60.53
2023-05-20T22:37:00.351Z,68.22
2023-05-20T22:42:03.025Z,58.76
2023-05-20T22:47:05.809Z,56.30
2023-05-20T22:52:08.605Z,59.66
2023-05-20T22:57:12.280Z,62.49
2023-05-20T23:02:15.096Z,66.36
2023-05-20T23:07:19.403Z,56.36
2023-05-20T23:12:22.113Z,59.13
2023-05-20T23:17:24.882Z,63.61
2023-05-20T23:22:27.644Z,64.98
2023-05-20T23:27:30.361Z,56.05
2023-05-20T23:32:33.171Z,59.00
2023-05-20T23:37:36.101Z,62.32
2023-05-20T23:42:39.764Z,66.39
2023-05-20T23:47:43.718Z,56.90
2023-05-20T23:52:46.502Z,59.83
2023-05-20T23:57:50.010Z,65.94
